Time;durP1;ratioP1;P1;durP2;ratioP2;P2;SDS_P1;SDS_P2;PMS_P1;PMS_P2;Temp;Humidity;BMP_temperature;BMP_pressure;BME280_temperature;BME280_humidity;BME280_pressure;Samples;Min_cycle;Max_cycle;Signal;HPM_P1;HPM_P2
2020/12/22 00:01:58;;;;;;;0.80;0.80;;;10.50;99.90;;;;;;5039443;28;20209;-77
2020/12/22 00:04:24;;;;;;;1.13;1.00;;;10.50;99.90;;;;;;5041606;28;20586;-77
2020/12/22 00:06:54;;;;;;;2.17;1.40;;;10.50;99.90;;;;;;5040755;28;20182;-76
2020/12/22 00:09:20;;;;;;;1.03;1.00;;;10.50;99.90;;;;;;5041407;28;20411;-77
2020/12/22 00:11:45;;;;;;;1.67;1.57;;;10.40;99.90;;;;;;5040923;28;20448;-77
2020/12/22 00:14:11;;;;;;;1.80;1.70;;;10.40;99.90;;;;;;5038333;28;20219;-77
2020/12/22 00:16:37;;;;;;;1.90;1.80;;;10.40;99.90;;;;;;5037333;28;20558;-77
2020/12/22 00:19:04;;;;;;;1.60;1.37;;;10.40;99.90;;;;;;5041450;28;20189;-77
2020/12/22 00:21:33;;;;;;;1.90;1.67;;;10.40;99.90;;;;;;5046338;28;20436;-77
2020/12/22 00:23:59;;;;;;;1.37;1.23;;;10.40;99.90;;;;;;5046240;28;21061;-77
2020/12/22 00:26:24;;;;;;;1.80;1.67;;;10.40;99.90;;;;;;5044134;28;20418;-78
2020/12/22 00:28:50;;;;;;;1.20;1.10;;;10.40;99.90;;;;;;5044967;28;20800;-78
2020/12/22 00:31:15;;;;;;;3.23;1.70;;;10.40;99.90;;;;;;5045053;28;20200;-77
2020/12/22 00:33:41;;;;;;;3.37;1.30;;;10.40;99.90;;;;;;5042317;28;20181;-78
2020/12/22 00:36:08;;;;;;;1.40;1.03;;;10.40;99.90;;;;;;5046156;28;20211;-77
2020/12/22 00:38:33;;;;;;;1.10;1.10;;;10.40;99.90;;;;;;5043216;28;20171;-78
2020/12/22 00:40:59;;;;;;;0.90;0.90;;;10.50;99.90;;;;;;5046214;28;20453;-78
2020/12/22 00:43:25;;;;;;;1.10;1.00;;;10.40;99.90;;;;;;5043656;28;20867;-78
2020/12/22 00:45:50;;;;;;;0.90;0.90;;;10.50;99.90;;;;;;5043410;28;20169;-78
2020/12/22 00:48:16;;;;;;;0.80;0.80;;;10.50;99.90;;;;;;5043419;28;20309;-78
2020/12/22 00:50:41;;;;;;;1.77;0.60;;;10.40;99.90;;;;;;5043211;28;20327;-77
2020/12/22 00:53:07;;;;;;;0.70;0.70;;;10.50;99.90;;;;;;5046350;28;20253;-78
2020/12/22 00:55:32;;;;;;;1.00;0.90;;;10.50;99.90;;;;;;5046416;28;20179;-78
2020/12/22 00:57:58;;;;;;;0.80;0.80;;;10.50;99.90;;;;;;5042963;28;20177;-78
2020/12/22 01:00:23;;;;;;;2.03;0.80;;;10.60;99.90;;;;;;5045042;28;20267;-78
2020/12/22 01:02:49;;;;;;;0.70;0.70;;;10.70;99.90;;;;;;5044046;28;20207;-79
2020/12/22 01:05:14;;;;;;;0.80;0.80;;;10.70;99.90;;;;;;5043478;28;20202;-78
2020/12/22 01:07:40;;;;;;;0.80;0.67;;;10.70;99.90;;;;;;5045191;28;20177;-78
2020/12/22 01:10:06;;;;;;;0.90;0.70;;;10.70;99.90;;;;;;5042631;28;20178;-78
2020/12/22 01:12:31;;;;;;;0.77;0.60;;;10.80;99.90;;;;;;5038361;28;20212;-78
2020/12/22 01:14:57;;;;;;;0.63;0.60;;;10.80;99.90;;;;;;5044853;28;20193;-78
2020/12/22 01:17:23;;;;;;;0.67;0.60;;;10.90;99.90;;;;;;5042888;28;20188;-78
2020/12/22 01:19:48;;;;;;;0.60;0.60;;;10.90;99.90;;;;;;5041854;28;20599;-78
2020/12/22 01:22:14;;;;;;;0.60;0.43;;;10.90;99.90;;;;;;5044609;28;20254;-78
2020/12/22 01:24:39;;;;;;;0.60;0.60;;;11.00;99.90;;;;;;5042282;28;20211;-78
2020/12/22 01:27:05;;;;;;;0.60;0.50;;;11.00;99.90;;;;;;5045825;28;20195;-78
2020/12/22 01:29:31;;;;;;;0.50;0.50;;;10.90;99.90;;;;;;5041068;28;20183;-78
2020/12/22 01:31:56;;;;;;;0.60;0.57;;;11.00;99.90;;;;;;5042806;28;20898;-77
2020/12/22 01:34:22;;;;;;;0.50;0.50;;;11.00;99.90;;;;;;5044098;28;20182;-78
2020/12/22 01:36:47;;;;;;;1.13;0.50;;;11.10;99.90;;;;;;5044115;28;20690;-78
2020/12/22 01:39:13;;;;;;;0.40;0.40;;;11.10;99.90;;;;;;5043134;28;20225;-78
2020/12/22 01:41:39;;;;;;;0.57;0.57;;;11.10;99.90;;;;;;5045153;28;20282;-78
2020/12/22 01:44:05;;;;;;;0.40;0.40;;;11.20;99.90;;;;;;5042403;28;20551;-78
2020/12/22 01:46:37;;;;;;;1.50;0.40;;;11.20;99.90;;;;;;5045820;28;20423;-77
2020/12/22 01:49:06;;;;;;;1.07;0.57;;;11.20;99.90;;;;;;5033231;28;20434;-78
2020/12/22 01:51:31;;;;;;;0.97;0.67;;;11.20;99.90;;;;;;5035055;28;20773;-78
2020/12/22 01:53:57;;;;;;;0.63;0.50;;;11.10;99.90;;;;;;5042257;28;20823;-78
2020/12/22 01:56:23;;;;;;;1.00;0.63;;;11.10;99.90;;;;;;5040085;28;20190;-78
2020/12/22 01:58:49;;;;;;;3.47;0.70;;;11.20;99.90;;;;;;5043452;28;20197;-78
2020/12/22 02:01:15;;;;;;;2.10;0.53;;;11.10;99.90;;;;;;5042091;28;20448;-78
2020/12/22 02:03:40;;;;;;;0.50;0.50;;;11.10;99.90;;;;;;5038011;28;20232;-78
2020/12/22 02:06:07;;;;;;;1.00;0.50;;;11.10;99.90;;;;;;5042498;28;20196;-78
2020/12/22 02:08:32;;;;;;;1.33;0.50;;;11.10;99.90;;;;;;5023660;28;20196;-78
2020/12/22 02:10:58;;;;;;;0.87;0.43;;;11.10;99.90;;;;;;5040465;28;21099;-78
2020/12/22 02:13:23;;;;;;;0.50;0.40;;;11.10;99.90;;;;;;5040040;28;20197;-78
2020/12/22 02:15:49;;;;;;;0.50;0.40;;;11.10;99.90;;;;;;5042977;28;20547;-78
2020/12/22 02:18:14;;;;;;;0.40;0.37;;;11.20;99.90;;;;;;5039709;28;20267;-78
2020/12/22 02:20:42;;;;;;;0.40;0.40;;;11.20;99.90;;;;;;5039907;28;20173;-78
2020/12/22 02:23:12;;;;;;;0.43;0.40;;;11.20;99.90;;;;;;5040345;28;20173;-78
2020/12/22 02:25:45;;;;;;;1.70;0.40;;;11.30;99.90;;;;;;5041327;28;20451;-78
2020/12/22 02:28:11;;;;;;;0.40;0.40;;;11.40;99.90;;;;;;5043152;28;20443;-78
2020/12/22 02:30:37;;;;;;;0.40;0.30;;;11.40;99.90;;;;;;5040976;28;20482;-78
2020/12/22 02:33:03;;;;;;;0.40;0.40;;;11.50;99.90;;;;;;5035255;28;20173;-78
2020/12/22 02:35:29;;;;;;;0.40;0.40;;;11.50;99.90;;;;;;5043286;28;20424;-78
2020/12/22 02:37:54;;;;;;;0.40;0.40;;;11.50;99.90;;;;;;5039915;28;20184;-78
2020/12/22 02:40:20;;;;;;;0.40;0.40;;;11.50;99.90;;;;;;5040496;28;20530;-78
2020/12/22 02:42:46;;;;;;;0.43;0.40;;;11.50;99.90;;;;;;5039832;28;20207;-77
2020/12/22 02:45:11;;;;;;;0.40;0.40;;;11.50;99.90;;;;;;5035424;28;20217;-78
2020/12/22 02:47:37;;;;;;;1.07;0.30;;;11.50;99.90;;;;;;5040461;28;20185;-78
2020/12/22 02:50:02;;;;;;;0.40;0.40;;;11.40;99.90;;;;;;5039086;28;20181;-77
2020/12/22 02:52:28;;;;;;;0.40;0.30;;;11.40;99.90;;;;;;5043076;28;20269;-77
2020/12/22 02:54:53;;;;;;;1.27;0.40;;;11.40;99.90;;;;;;5038635;28;20193;-77
2020/12/22 02:57:19;;;;;;;1.90;0.40;;;11.40;99.90;;;;;;5040454;28;20543;-77
2020/12/22 02:59:44;;;;;;;0.40;0.30;;;11.40;99.90;;;;;;5039189;28;20209;-77
2020/12/22 03:02:09;;;;;;;0.40;0.40;;;11.50;99.90;;;;;;5043111;28;20272;-77
2020/12/22 03:04:35;;;;;;;1.07;0.30;;;11.50;99.90;;;;;;5034488;28;20237;-77
2020/12/22 03:07:00;;;;;;;0.40;0.30;;;11.50;99.90;;;;;;5042124;28;20186;-77
2020/12/22 03:09:26;;;;;;;0.43;0.40;;;11.50;99.90;;;;;;5042697;28;20847;-77
2020/12/22 03:11:51;;;;;;;0.30;0.30;;;11.50;99.90;;;;;;5042231;28;20717;-77
2020/12/22 03:14:17;;;;;;;0.43;0.37;;;11.40;99.90;;;;;;5040824;28;20193;-77
2020/12/22 03:16:42;;;;;;;0.90;0.40;;;11.40;99.90;;;;;;5036830;28;20205;-77
2020/12/22 03:19:08;;;;;;;0.40;0.40;;;11.40;99.90;;;;;;5037074;28;20197;-79
2020/12/22 03:21:33;;;;;;;0.40;0.40;;;11.50;99.90;;;;;;5040400;28;20575;-78
2020/12/22 03:23:59;;;;;;;0.40;0.37;;;11.50;99.90;;;;;;5040192;28;20288;-78
2020/12/22 03:26:24;;;;;;;0.50;0.40;;;11.50;99.90;;;;;;5040143;28;20579;-77
2020/12/22 03:28:50;;;;;;;0.40;0.40;;;11.50;99.90;;;;;;5037878;28;20181;-78
2020/12/22 03:31:15;;;;;;;0.40;0.30;;;11.50;99.90;;;;;;5039250;28;20559;-78
2020/12/22 03:33:41;;;;;;;0.50;0.43;;;11.50;99.90;;;;;;5038476;28;20196;-78
2020/12/22 03:36:06;;;;;;;0.50;0.40;;;11.50;99.90;;;;;;5039408;28;20233;-78
2020/12/22 03:38:32;;;;;;;1.33;0.43;;;11.50;99.90;;;;;;5034094;28;20189;-78
2020/12/22 03:40:57;;;;;;;0.40;0.30;;;11.60;99.90;;;;;;5039176;28;20297;-78
2020/12/22 03:43:23;;;;;;;0.40;0.40;;;11.60;99.90;;;;;;5040132;28;20272;-78
2020/12/22 03:45:49;;;;;;;0.40;0.30;;;11.60;99.90;;;;;;5068981;28;20177;-78
2020/12/22 03:48:14;;;;;;;0.40;0.30;;;11.60;99.90;;;;;;5035718;28;20563;-78
2020/12/22 03:50:40;;;;;;;0.40;0.40;;;11.60;99.90;;;;;;5042065;28;20427;-78
2020/12/22 03:53:05;;;;;;;1.30;0.30;;;11.60;99.90;;;;;;5041392;28;20218;-77
2020/12/22 03:55:31;;;;;;;0.40;0.30;;;11.60;99.90;;;;;;5040417;28;20684;-78
2020/12/22 03:57:56;;;;;;;0.40;0.40;;;11.70;99.90;;;;;;5041524;28;20674;-78
2020/12/22 04:00:22;;;;;;;0.50;0.40;;;11.70;99.90;;;;;;5039221;28;20567;-78
2020/12/22 04:02:47;;;;;;;0.50;0.30;;;11.70;99.90;;;;;;5041187;28;21909;-78
2020/12/22 04:05:13;;;;;;;0.37;0.30;;;11.60;99.90;;;;;;5041338;28;20206;-77
2020/12/22 04:07:38;;;;;;;0.60;0.30;;;11.70;99.90;;;;;;5042150;28;20231;-77
2020/12/22 04:10:05;;;;;;;0.40;0.30;;;11.70;99.90;;;;;;5033924;28;20185;-77
2020/12/22 04:12:32;;;;;;;0.60;0.30;;;11.70;99.90;;;;;;5039223;28;20616;-77
2020/12/22 04:14:57;;;;;;;0.40;0.40;;;11.70;99.90;;;;;;5039387;28;20455;-77
2020/12/22 04:17:23;;;;;;;2.67;0.40;;;11.60;99.90;;;;;;5038969;28;20420;-77
2020/12/22 04:19:49;;;;;;;0.40;0.30;;;11.60;99.90;;;;;;5036752;28;20220;-77
2020/12/22 04:22:14;;;;;;;0.30;0.30;;;11.60;99.90;;;;;;5040166;28;20480;-77
2020/12/22 04:24:40;;;;;;;0.30;0.30;;;11.60;99.90;;;;;;5037032;28;20758;-77
2020/12/22 04:27:05;;;;;;;0.50;0.30;;;11.60;99.90;;;;;;5042645;28;20180;-78
2020/12/22 04:29:31;;;;;;;0.90;0.40;;;11.70;99.90;;;;;;5037147;28;20169;-77
2020/12/22 04:31:57;;;;;;;1.63;0.40;;;11.70;99.90;;;;;;5040522;28;20239;-78
2020/12/22 04:34:23;;;;;;;2.60;0.40;;;11.70;99.90;;;;;;5038875;28;20190;-77
2020/12/22 04:36:48;;;;;;;0.40;0.30;;;11.80;99.90;;;;;;5038742;28;20181;-78
2020/12/22 04:39:14;;;;;;;0.40;0.40;;;11.70;99.90;;;;;;5041358;28;20537;-78
2020/12/22 04:41:46;;;;;;;0.30;0.30;;;11.80;99.90;;;;;;5035300;28;20259;-78
2020/12/22 04:44:12;;;;;;;0.80;0.40;;;11.70;99.90;;;;;;5040116;28;20261;-78
2020/12/22 04:46:38;;;;;;;0.37;0.30;;;11.80;99.90;;;;;;5032715;28;20431;-78
2020/12/22 04:49:09;;;;;;;0.40;0.40;;;11.80;99.90;;;;;;5038712;28;20672;-78
2020/12/22 04:51:37;;;;;;;0.40;0.33;;;11.80;99.90;;;;;;5034599;28;20440;-78
2020/12/22 04:54:03;;;;;;;0.40;0.33;;;11.90;99.90;;;;;;5037502;28;20436;-78
2020/12/22 04:56:30;;;;;;;0.40;0.40;;;11.80;99.90;;;;;;5042721;28;20930;-78
2020/12/22 04:58:55;;;;;;;0.50;0.40;;;11.80;99.90;;;;;;5040348;28;20671;-78
2020/12/22 05:01:21;;;;;;;3.03;0.30;;;11.80;99.90;;;;;;5037732;28;20460;-78
2020/12/22 05:03:47;;;;;;;0.60;0.40;;;11.80;99.90;;;;;;5035070;28;20285;-78
2020/12/22 05:06:12;;;;;;;0.40;0.30;;;11.80;99.90;;;;;;5042673;28;20859;-78
2020/12/22 05:08:38;;;;;;;0.40;0.30;;;11.80;99.90;;;;;;5040514;28;20193;-78
2020/12/22 05:11:03;;;;;;;0.40;0.30;;;11.80;99.90;;;;;;5042484;28;20211;-78
2020/12/22 05:13:29;;;;;;;0.40;0.30;;;11.90;99.90;;;;;;5039556;28;20225;-79
2020/12/22 05:15:54;;;;;;;0.90;0.50;;;11.90;99.90;;;;;;5043451;28;20216;-78
2020/12/22 05:18:24;;;;;;;0.30;0.30;;;11.90;99.90;;;;;;5041216;28;20185;-78
2020/12/22 05:20:51;;;;;;;0.40;0.33;;;11.90;99.90;;;;;;5038949;28;20647;-78
2020/12/22 05:23:21;;;;;;;0.30;0.30;;;11.90;99.90;;;;;;5041808;28;20479;-78
2020/12/22 05:25:50;;;;;;;0.40;0.30;;;11.90;99.90;;;;;;5046469;28;20425;-78
2020/12/22 05:28:18;;;;;;;1.00;0.30;;;11.90;99.90;;;;;;5042084;28;20508;-79
2020/12/22 05:30:44;;;;;;;0.50;0.30;;;11.90;99.90;;;;;;5048209;28;20492;-78
2020/12/22 05:33:10;;;;;;;1.77;0.40;;;11.90;99.90;;;;;;5039755;28;20443;-79
2020/12/22 05:35:38;;;;;;;1.90;0.40;;;12.00;99.90;;;;;;5049346;28;20560;-78
2020/12/22 05:38:06;;;;;;;0.40;0.40;;;12.00;99.90;;;;;;5038630;28;20433;-79
2020/12/22 05:40:39;;;;;;;0.40;0.33;;;12.00;99.90;;;;;;5044564;28;20423;-79
2020/12/22 05:43:04;;;;;;;1.70;0.40;;;12.00;99.90;;;;;;5038918;28;20464;-78
2020/12/22 05:45:31;;;;;;;0.30;0.30;;;12.00;99.90;;;;;;5038757;28;20467;-79
2020/12/22 05:47:57;;;;;;;0.50;0.40;;;12.00;99.90;;;;;;5043389;28;20173;-79
2020/12/22 05:50:24;;;;;;;1.23;0.40;;;12.00;99.90;;;;;;5042289;28;20437;-79
2020/12/22 05:52:52;;;;;;;0.30;0.30;;;12.00;99.90;;;;;;5045758;28;20201;-79
2020/12/22 05:55:30;;;;;;;0.40;0.30;;;12.00;99.90;;;;;;5040652;28;20445;-79
2020/12/22 05:58:13;;;;;;;0.30;0.30;;;12.00;99.90;;;;;;5046087;28;20482;-79
2020/12/22 06:00:41;;;;;;;0.40;0.30;;;12.10;99.90;;;;;;5037572;28;20917;-79
2020/12/22 06:03:08;;;;;;;0.50;0.30;;;12.10;99.90;;;;;;5046969;28;20510;-79
2020/12/22 06:05:39;;;;;;;1.43;0.30;;;12.10;99.90;;;;;;5031107;28;20606;-79
2020/12/22 06:08:07;;;;;;;0.40;0.30;;;12.20;99.90;;;;;;5039631;28;20417;-79
2020/12/22 06:10:34;;;;;;;0.97;0.40;;;12.10;99.90;;;;;;5037031;28;20484;-78
2020/12/22 06:12:59;;;;;;;0.67;0.40;;;12.20;99.90;;;;;;5042806;28;20455;-79
2020/12/22 06:15:26;;;;;;;0.60;0.40;;;12.20;99.90;;;;;;5042227;28;20435;-79
2020/12/22 06:17:52;;;;;;;1.07;0.50;;;12.20;99.90;;;;;;5041005;28;20268;-78
2020/12/22 06:20:21;;;;;;;0.57;0.30;;;12.20;99.90;;;;;;5036400;28;20807;-78
2020/12/22 06:22:51;;;;;;;7.63;0.40;;;12.20;99.90;;;;;;5040875;28;20457;-79
2020/12/22 06:25:18;;;;;;;0.40;0.40;;;12.30;99.90;;;;;;5037550;28;20840;-78
2020/12/22 06:27:43;;;;;;;0.50;0.37;;;12.30;99.90;;;;;;5034438;28;20802;-78
2020/12/22 06:30:09;;;;;;;0.40;0.30;;;12.20;99.90;;;;;;5044769;28;20414;-78
2020/12/22 06:32:34;;;;;;;0.40;0.30;;;12.20;99.90;;;;;;5037141;28;20287;-78
2020/12/22 06:35:27;;;;;;;0.40;0.40;;;12.20;99.90;;;;;;5039002;28;20220;-78
2020/12/22 06:37:53;;;;;;;0.73;0.40;;;12.30;99.90;;;;;;5037637;28;20178;-79
2020/12/22 06:40:19;;;;;;;0.40;0.40;;;12.30;99.90;;;;;;5043556;28;20427;-78
2020/12/22 06:42:46;;;;;;;0.40;0.40;;;12.30;99.90;;;;;;5042893;28;20497;-79
2020/12/22 06:45:30;;;;;;;1.13;0.50;;;12.30;99.90;;;;;;5041626;28;20210;-79
2020/12/22 06:47:56;;;;;;;0.40;0.37;;;12.30;99.90;;;;;;5042389;28;20475;-79
2020/12/22 06:50:37;;;;;;;0.40;0.30;;;12.30;99.90;;;;;;5043599;28;20450;-79
2020/12/22 06:53:04;;;;;;;0.40;0.30;;;12.30;99.90;;;;;;5034549;28;21047;-79
2020/12/22 06:55:50;;;;;;;0.43;0.40;;;12.20;99.90;;;;;;5039231;28;20434;-79
2020/12/22 06:58:48;;;;;;;1.43;0.40;;;12.30;99.90;;;;;;5036890;28;20557;-79
2020/12/22 07:01:26;;;;;;;0.80;0.40;;;12.30;99.90;;;;;;5041723;28;20431;-79
2020/12/22 07:03:52;;;;;;;0.40;0.37;;;12.20;99.90;;;;;;5040733;28;20475;-78
2020/12/22 07:06:43;;;;;;;0.40;0.30;;;12.30;99.90;;;;;;5043428;28;20450;-79
2020/12/22 07:09:26;;;;;;;0.40;0.40;;;12.30;99.90;;;;;;5035571;28;20436;-76
2020/12/22 07:11:54;;;;;;;0.40;0.40;;;12.30;99.90;;;;;;5037380;28;20471;-76
2020/12/22 07:14:22;;;;;;;0.40;0.40;;;12.40;99.90;;;;;;5038174;28;20917;-77
2020/12/22 07:16:59;;;;;;;0.50;0.40;;;12.40;99.90;;;;;;5039076;28;20433;-76
2020/12/22 07:19:31;;;;;;;0.53;0.40;;;12.40;99.90;;;;;;5035819;28;20521;-77
2020/12/22 07:21:58;;;;;;;0.40;0.30;;;12.40;99.90;;;;;;5038169;28;20456;-77
2020/12/22 07:24:25;;;;;;;3.70;0.40;;;12.40;99.90;;;;;;5041262;28;20471;-76
2020/12/22 07:26:51;;;;;;;0.40;0.40;;;12.50;99.90;;;;;;5033417;28;20965;-77
2020/12/22 07:29:16;;;;;;;1.80;0.40;;;12.50;99.90;;;;;;5043067;28;20473;-76
2020/12/22 07:31:42;;;;;;;2.40;0.30;;;12.60;99.90;;;;;;5039084;28;20249;-76
2020/12/22 07:34:09;;;;;;;0.90;0.37;;;12.60;99.90;;;;;;5035436;28;20584;-76
2020/12/22 07:36:34;;;;;;;0.50;0.40;;;12.70;99.90;;;;;;5037128;28;20530;-76
2020/12/22 07:39:14;;;;;;;0.50;0.50;;;12.70;99.90;;;;;;5042528;28;20515;-77
2020/12/22 07:41:41;;;;;;;1.70;0.40;;;12.70;99.90;;;;;;5035876;28;20585;-78
2020/12/22 07:44:10;;;;;;;0.53;0.43;;;12.70;99.90;;;;;;5037221;28;20983;-76
2020/12/22 07:46:37;;;;;;;0.87;0.30;;;12.70;99.90;;;;;;5037377;28;20429;-74
2020/12/22 07:49:07;;;;;;;2.83;0.40;;;12.70;99.90;;;;;;5042641;28;20419;-75
2020/12/22 07:51:34;;;;;;;0.70;0.40;;;12.70;99.90;;;;;;5035041;28;20440;-76
2020/12/22 07:54:04;;;;;;;0.47;0.37;;;12.70;99.90;;;;;;5065530;28;20430;-76
2020/12/22 07:56:35;;;;;;;0.40;0.40;;;12.70;99.90;;;;;;5035094;28;20507;-77
2020/12/22 07:59:06;;;;;;;0.70;0.30;;;12.80;99.90;;;;;;5039205;28;20590;-76
2020/12/22 08:01:37;;;;;;;1.00;0.40;;;12.80;99.90;;;;;;5043409;28;20444;-77
2020/12/22 08:04:10;;;;;;;0.70;0.40;;;12.80;99.90;;;;;;5044102;28;20651;-76
2020/12/22 08:06:36;;;;;;;0.47;0.40;;;12.80;99.90;;;;;;5041672;28;20431;-76
2020/12/22 08:09:02;;;;;;;1.43;0.30;;;12.80;99.90;;;;;;5039126;28;20437;-75
2020/12/22 08:11:27;;;;;;;0.40;0.37;;;12.80;99.90;;;;;;5043104;28;20680;-76
2020/12/22 08:13:54;;;;;;;0.40;0.40;;;12.90;99.90;;;;;;5041169;28;20213;-76
2020/12/22 08:16:20;;;;;;;0.40;0.30;;;12.90;99.90;;;;;;5039291;28;20197;-75
2020/12/22 08:18:46;;;;;;;0.80;0.30;;;12.90;99.90;;;;;;5039889;28;20521;-75
2020/12/22 08:21:14;;;;;;;0.40;0.30;;;12.90;99.90;;;;;;5041869;28;20506;-76
2020/12/22 08:23:40;;;;;;;0.40;0.40;;;12.90;99.90;;;;;;5038888;28;20818;-76
2020/12/22 08:26:08;;;;;;;0.40;0.30;;;12.90;99.90;;;;;;5042146;28;20420;-76
2020/12/22 08:28:35;;;;;;;1.23;0.40;;;12.90;99.90;;;;;;5035002;28;20425;-76
2020/12/22 08:31:11;;;;;;;0.50;0.40;;;12.90;99.90;;;;;;5041899;28;20449;-76
2020/12/22 08:33:39;;;;;;;0.40;0.30;;;13.00;99.90;;;;;;5034465;28;20810;-75
2020/12/22 08:36:10;;;;;;;0.40;0.30;;;12.90;99.90;;;;;;5035301;28;20427;-75
2020/12/22 08:38:35;;;;;;;0.37;0.33;;;12.90;99.90;;;;;;5034118;28;20771;-76
2020/12/22 08:41:16;;;;;;;0.40;0.30;;;12.90;99.90;;;;;;5045676;28;20542;-76
2020/12/22 08:43:50;;;;;;;0.47;0.40;;;12.90;99.90;;;;;;5040051;28;20574;-76
2020/12/22 08:46:16;;;;;;;0.50;0.50;;;12.90;99.90;;;;;;5044875;28;20469;-75
2020/12/22 08:48:42;;;;;;;0.50;0.40;;;12.90;99.90;;;;;;5043057;28;20455;-76
2020/12/22 08:51:08;;;;;;;0.47;0.40;;;13.00;99.90;;;;;;5045834;28;20467;-76
2020/12/22 08:53:34;;;;;;;0.50;0.37;;;12.90;99.90;;;;;;5040221;28;20177;-76
2020/12/22 08:56:10;;;;;;;0.40;0.40;;;12.90;99.90;;;;;;5041593;28;20395;-76
2020/12/22 08:58:51;;;;;;;0.43;0.30;;;13.00;99.90;;;;;;5037553;28;20851;-76
2020/12/22 09:01:19;;;;;;;0.50;0.30;;;13.00;99.90;;;;;;5041246;28;20455;-76
2020/12/22 09:03:57;;;;;;;1.33;0.40;;;13.10;99.90;;;;;;5044607;28;20459;-76
2020/12/22 09:06:39;;;;;;;0.40;0.40;;;13.10;99.90;;;;;;5044509;28;20797;-75
2020/12/22 09:09:08;;;;;;;0.50;0.33;;;13.10;99.90;;;;;;5038637;28;20416;-76
2020/12/22 09:11:34;;;;;;;0.40;0.30;;;13.10;99.90;;;;;;5038034;28;20447;-75
2020/12/22 09:14:05;;;;;;;0.40;0.30;;;13.00;99.90;;;;;;5045056;28;20485;-76
2020/12/22 09:16:47;;;;;;;0.50;0.40;;;13.00;99.90;;;;;;5041909;28;20456;-76
2020/12/22 09:19:14;;;;;;;0.60;0.40;;;13.10;99.90;;;;;;5039983;28;20421;-76
2020/12/22 09:21:40;;;;;;;1.13;0.30;;;13.00;99.90;;;;;;5045299;28;20497;-76
2020/12/22 09:24:15;;;;;;;0.60;0.40;;;12.90;99.90;;;;;;5040375;28;20478;-73
2020/12/22 09:26:52;;;;;;;0.30;0.30;;;13.00;99.90;;;;;;5039154;28;20185;-76
2020/12/22 09:29:17;;;;;;;0.40;0.40;;;13.00;99.90;;;;;;5043109;28;20538;-76
2020/12/22 09:31:42;;;;;;;0.73;0.40;;;13.00;99.90;;;;;;5044264;28;20479;-76
2020/12/22 09:34:08;;;;;;;0.40;0.30;;;13.00;99.90;;;;;;5041563;28;20194;-75
2020/12/22 09:36:33;;;;;;;0.40;0.30;;;13.00;99.90;;;;;;5044904;28;20537;-76
2020/12/22 09:38:59;;;;;;;0.40;0.30;;;13.00;99.90;;;;;;5042144;28;20186;-77
2020/12/22 09:41:24;;;;;;;1.43;0.40;;;13.00;99.90;;;;;;5043819;28;20206;-76
2020/12/22 09:43:50;;;;;;;0.40;0.30;;;12.90;99.90;;;;;;5041995;28;20288;-76
2020/12/22 09:46:18;;;;;;;0.40;0.30;;;12.90;99.90;;;;;;5042542;28;20188;-75
2020/12/22 09:48:44;;;;;;;1.50;0.40;;;12.80;99.90;;;;;;5044106;28;20182;-77
2020/12/22 09:51:16;;;;;;;2.73;0.50;;;12.80;99.90;;;;;;5041374;28;21011;-76
2020/12/22 09:53:42;;;;;;;2.00;0.40;;;12.80;99.90;;;;;;5044481;28;20183;-76
2020/12/22 09:56:07;;;;;;;0.50;0.40;;;12.80;99.90;;;;;;5039921;28;20632;-76
2020/12/22 09:58:33;;;;;;;0.47;0.40;;;12.80;99.90;;;;;;5037270;28;20572;-76
2020/12/22 10:00:58;;;;;;;0.60;0.37;;;12.90;99.90;;;;;;5043861;28;20251;-75
2020/12/22 10:03:24;;;;;;;0.80;0.40;;;12.90;99.90;;;;;;5043424;28;20232;-75
2020/12/22 10:05:49;;;;;;;0.40;0.40;;;13.00;99.90;;;;;;5042642;28;20192;-76
2020/12/22 10:08:15;;;;;;;0.43;0.40;;;13.00;99.90;;;;;;5042265;28;20181;-75
2020/12/22 10:10:40;;;;;;;0.40;0.30;;;13.10;99.90;;;;;;5043766;28;20695;-75
2020/12/22 10:13:06;;;;;;;0.40;0.30;;;13.10;99.90;;;;;;5041093;28;20195;-76
2020/12/22 10:15:31;;;;;;;0.60;0.40;;;13.20;99.90;;;;;;5044078;28;20219;-75
2020/12/22 10:17:57;;;;;;;1.10;0.40;;;13.30;99.90;;;;;;5044333;28;20211;-76
2020/12/22 10:20:22;;;;;;;0.40;0.30;;;13.40;99.90;;;;;;5040952;28;20643;-75
2020/12/22 10:22:48;;;;;;;1.27;0.40;;;13.50;99.90;;;;;;5040864;28;20634;-76
2020/12/22 10:25:13;;;;;;;0.50;0.37;;;13.60;99.90;;;;;;5043089;28;20314;-75
2020/12/22 10:27:39;;;;;;;0.77;0.40;;;13.60;99.90;;;;;;5040557;28;20182;-75
2020/12/22 10:30:06;;;;;;;0.80;0.50;;;13.60;99.90;;;;;;5043574;28;20642;-75
2020/12/22 10:32:31;;;;;;;0.40;0.40;;;13.80;99.90;;;;;;5046066;28;20204;-75
2020/12/22 10:34:57;;;;;;;0.40;0.40;;;13.90;99.90;;;;;;5041051;28;20423;-75
2020/12/22 10:37:23;;;;;;;0.50;0.40;;;13.90;99.90;;;;;;5041198;28;20545;-75
2020/12/22 10:39:51;;;;;;;0.40;0.30;;;14.00;99.90;;;;;;5041017;28;20662;-76
2020/12/22 10:42:18;;;;;;;0.40;0.40;;;14.00;99.90;;;;;;5041668;28;20437;-74
2020/12/22 10:44:43;;;;;;;0.50;0.50;;;13.90;99.90;;;;;;5042789;28;20993;-76
2020/12/22 10:47:09;;;;;;;0.37;0.30;;;13.90;99.90;;;;;;5040345;28;20462;-76
2020/12/22 10:49:34;;;;;;;0.37;0.33;;;13.90;99.90;;;;;;5043875;28;20176;-76
2020/12/22 10:52:00;;;;;;;0.40;0.30;;;13.90;99.90;;;;;;5040670;28;20198;-76
2020/12/22 10:54:25;;;;;;;0.60;0.50;;;13.90;99.90;;;;;;5041575;28;20218;-76
2020/12/22 10:56:51;;;;;;;0.70;0.30;;;13.80;99.90;;;;;;5041291;28;20185;-76
2020/12/22 10:59:16;;;;;;;0.60;0.40;;;13.70;99.90;;;;;;5041355;28;20186;-75
2020/12/22 11:01:42;;;;;;;0.40;0.40;;;13.80;99.90;;;;;;5041926;28;20216;-76
2020/12/22 11:04:08;;;;;;;0.40;0.40;;;13.80;99.90;;;;;;5040432;28;20269;-76
2020/12/22 11:06:47;;;;;;;0.40;0.30;;;13.80;99.90;;;;;;5034206;28;20478;-76
2020/12/22 11:09:12;;;;;;;0.40;0.40;;;13.80;99.90;;;;;;5037828;28;20185;-76
2020/12/22 11:11:42;;;;;;;0.40;0.40;;;13.90;99.90;;;;;;5043357;28;20435;-76
2020/12/22 11:14:08;;;;;;;0.40;0.40;;;13.90;99.90;;;;;;5039765;28;20199;-76
2020/12/22 11:16:35;;;;;;;0.40;0.40;;;13.90;99.90;;;;;;5042865;28;20917;-76
2020/12/22 11:19:00;;;;;;;0.50;0.40;;;13.90;99.90;;;;;;5039967;28;20180;-76
2020/12/22 11:21:26;;;;;;;1.20;0.50;;;14.00;99.90;;;;;;5042007;28;20440;-77
2020/12/22 11:23:52;;;;;;;1.03;0.70;;;14.00;99.90;;;;;;5042932;28;20213;-75
2020/12/22 11:26:22;;;;;;;2.23;0.57;;;14.00;99.90;;;;;;5039402;28;20233;-75
2020/12/22 11:28:49;;;;;;;0.50;0.50;;;14.00;99.90;;;;;;5042011;28;20941;-76
2020/12/22 11:31:14;;;;;;;0.50;0.40;;;14.10;99.90;;;;;;5040368;28;20912;-76
2020/12/22 11:33:40;;;;;;;1.27;1.17;;;14.10;99.90;;;;;;5042554;28;20491;-76
2020/12/22 11:36:08;;;;;;;0.40;0.40;;;14.10;99.90;;;;;;5039361;28;20185;-74
2020/12/22 11:38:34;;;;;;;1.60;1.50;;;14.20;99.90;;;;;;5035447;28;20412;-76
2020/12/22 11:40:59;;;;;;;0.60;0.60;;;14.10;99.90;;;;;;5041998;28;20949;-75
2020/12/22 11:43:25;;;;;;;0.50;0.50;;;14.10;99.90;;;;;;5040485;28;20184;-76
2020/12/22 11:45:50;;;;;;;1.77;0.50;;;14.10;99.90;;;;;;5043200;28;20189;-75
2020/12/22 11:48:16;;;;;;;1.60;0.67;;;14.00;99.90;;;;;;5040309;28;20640;-73
2020/12/22 11:50:41;;;;;;;0.80;0.60;;;13.90;99.90;;;;;;5042246;28;20212;-76
2020/12/22 11:53:07;;;;;;;1.43;1.17;;;13.90;99.90;;;;;;5037974;28;20336;-76
2020/12/22 11:55:33;;;;;;;1.63;1.07;;;13.90;99.90;;;;;;5040853;28;20252;-76
2020/12/22 11:57:58;;;;;;;1.00;0.90;;;13.90;99.90;;;;;;5041945;28;20189;-77
2020/12/22 12:00:24;;;;;;;2.93;0.97;;;13.90;99.90;;;;;;5038478;28;20307;-76
2020/12/22 12:02:49;;;;;;;0.60;0.60;;;14.00;99.90;;;;;;5040942;28;20246;-76
2020/12/22 12:05:15;;;;;;;0.40;0.40;;;14.00;99.90;;;;;;5040091;28;20746;-77
2020/12/22 12:07:40;;;;;;;0.50;0.50;;;14.10;99.90;;;;;;5041861;28;20169;-75
2020/12/22 12:10:06;;;;;;;0.70;0.40;;;14.10;99.90;;;;;;5039247;28;20232;-76
2020/12/22 12:12:31;;;;;;;0.50;0.50;;;14.30;99.90;;;;;;5042010;28;20296;-76
2020/12/22 12:14:57;;;;;;;1.60;0.40;;;14.30;99.90;;;;;;5044182;28;20189;-76
2020/12/22 12:17:22;;;;;;;0.50;0.40;;;14.40;99.90;;;;;;5041782;28;20180;-76
2020/12/22 12:19:48;;;;;;;0.73;0.40;;;14.50;99.90;;;;;;5044172;28;20483;-76
2020/12/22 12:22:13;;;;;;;0.50;0.40;;;14.50;99.90;;;;;;5045510;28;20262;-76
2020/12/22 12:24:39;;;;;;;0.60;0.40;;;14.50;99.90;;;;;;5043088;28;20212;-76
2020/12/22 12:27:04;;;;;;;0.90;0.33;;;14.50;99.90;;;;;;5046243;28;20174;-75
2020/12/22 12:29:30;;;;;;;0.50;0.50;;;14.50;99.90;;;;;;5041787;28;20173;-75
2020/12/22 12:31:55;;;;;;;0.60;0.40;;;14.50;99.90;;;;;;5045174;28;20564;-72
2020/12/22 12:34:21;;;;;;;0.73;0.60;;;14.60;99.90;;;;;;5044532;28;20173;-76
2020/12/22 12:36:50;;;;;;;0.50;0.50;;;14.60;99.90;;;;;;5042198;28;20193;-76
2020/12/22 12:39:16;;;;;;;0.97;0.43;;;14.50;99.90;;;;;;5045302;28;20780;-75
2020/12/22 12:41:48;;;;;;;0.60;0.50;;;14.50;99.90;;;;;;5041535;28;20526;-75
2020/12/22 12:44:13;;;;;;;0.50;0.50;;;14.50;99.90;;;;;;5044278;28;20205;-77
2020/12/22 12:46:38;;;;;;;0.40;0.40;;;14.50;99.90;;;;;;5042549;28;20425;-75
2020/12/22 12:49:04;;;;;;;0.50;0.40;;;14.50;99.90;;;;;;5045934;28;20173;-75